Time;durP1;ratioP1;P1;durP2;ratioP2;P2;SDS_P1;SDS_P2;PMS_P1;PMS_P2;Temp;Humidity;BMP_temperature;BMP_pressure;BME280_temperature;BME280_humidity;BME280_pressure;Samples;Min_cycle;Max_cycle;Signal;HPM_P1;HPM_P2
2022/04/04 00:02:16;;;;;;;18.33;9.30;;;;;;;-0.18;100.00;160526.91;5068956;28;20411;-59
2022/04/04 00:04:42;;;;;;;12.02;9.15;;;;;;;-0.15;100.00;160534.97;5070648;28;20024;-58
2022/04/04 00:07:07;;;;;;;12.00;10.68;;;;;;;-0.15;100.00;160534.97;5068551;28;20040;-59
2022/04/04 00:09:32;;;;;;;14.90;10.05;;;;;;;-0.16;100.00;160532.28;5070645;28;20027;-59
2022/04/04 00:11:58;;;;;;;19.27;9.88;;;;;;;-0.18;100.00;160526.91;5068987;28;20056;-59
2022/04/04 00:14:23;;;;;;;11.82;10.60;;;;;;;-0.22;100.00;160516.22;5070239;28;20024;-59
2022/04/04 00:16:49;;;;;;;12.95;11.43;;;;;;;-0.26;100.00;160505.53;5049980;28;20060;-59
2022/04/04 00:19:17;;;;;;;13.38;10.27;;;;;;;-0.32;100.00;160490.78;5058702;28;20059;-59
2022/04/04 00:21:42;;;;;;;16.43;11.73;;;;;;;-0.38;100.00;160476.03;5068923;28;20963;-58
2022/04/04 00:24:08;;;;;;;16.90;12.02;;;;;;;-0.38;100.00;160474.72;5070544;28;20104;-58
2022/04/04 00:26:34;;;;;;;14.13;12.30;;;;;;;-0.38;100.00;160474.72;5068932;28;20044;-57
2022/04/04 00:28:59;;;;;;;13.65;12.18;;;;;;;-0.32;100.00;160492.09;5069839;28;20123;-58
2022/04/04 00:31:25;;;;;;;13.70;12.38;;;;;;;-0.30;100.00;160494.78;5068751;28;20044;-58
2022/04/04 00:33:50;;;;;;;16.20;13.77;;;;;;;-0.34;100.00;160486.78;5070554;28;20024;-58
2022/04/04 00:36:15;;;;;;;18.70;11.90;;;;;;;-0.35;100.00;160484.09;5068500;28;20052;-58
2022/04/04 00:38:41;;;;;;;18.55;13.52;;;;;;;-0.36;100.00;160481.41;5070824;28;20048;-58
2022/04/04 00:41:11;;;;;;;15.20;13.13;;;;;;;-0.30;100.00;160494.78;5069089;28;20017;-58
2022/04/04 00:43:37;;;;;;;13.52;11.70;;;;;;;-0.47;100.00;160451.91;5069399;28;20028;-58
2022/04/04 00:46:02;;;;;;;18.48;11.30;;;;;;;-0.31;100.00;160493.47;5068580;28;20033;-58
2022/04/04 00:48:28;;;;;;;15.02;12.00;;;;;;;-0.30;100.00;160494.78;5069937;28;20059;-57
2022/04/04 00:50:54;;;;;;;11.55;10.35;;;;;;;-0.29;100.00;160497.47;5071980;28;20475;-58
2022/04/04 00:53:20;;;;;;;16.02;11.55;;;;;;;-0.29;100.00;160497.47;5073889;28;20379;-58
2022/04/04 00:55:45;;;;;;;18.85;10.90;;;;;;;-0.30;100.00;160496.16;5073525;28;20025;-58
2022/04/04 00:58:13;;;;;;;15.30;10.38;;;;;;;-0.25;100.00;160509.53;5071917;28;20507;-58
2022/04/04 01:00:38;;;;;;;24.25;11.63;;;;;;;-0.22;100.00;160516.22;5073622;28;20052;-58
2022/04/04 01:03:03;;;;;;;13.25;10.82;;;;;;;-0.22;100.00;160516.22;5072438;28;20048;-58
2022/04/04 01:05:30;;;;;;;13.52;12.15;;;;;;;-0.22;100.00;160516.22;5073223;28;20180;-58
2022/04/04 01:07:55;;;;;;;14.18;11.65;;;;;;;-0.23;100.00;160514.91;5072141;28;20035;-57
2022/04/04 01:10:21;;;;;;;11.88;9.90;;;;;;;-0.30;100.00;160494.78;5073026;28;20024;-58
2022/04/04 01:12:54;;;;;;;13.57;10.55;;;;;;;-0.26;100.00;160505.53;5071626;28;20047;-57
2022/04/04 01:15:22;;;;;;;13.25;10.82;;;;;;;-0.30;100.00;160494.78;5073162;28;20032;-58
2022/04/04 01:17:47;;;;;;;15.77;11.73;;;;;;;-0.30;100.00;160494.78;5072063;28;20098;-57
2022/04/04 01:20:12;;;;;;;13.25;11.65;;;;;;;-0.26;100.00;160506.84;5073008;28;20430;-58
2022/04/04 01:22:38;;;;;;;12.90;10.80;;;;;;;-0.23;100.00;160514.91;5071741;28;20457;-58
2022/04/04 01:25:05;;;;;;;10.70;9.60;;;;;;;-0.21;100.00;160518.91;5073179;28;20028;-58
2022/04/04 01:27:31;;;;;;;16.17;10.77;;;;;;;-0.19;100.00;160525.59;5071021;28;20064;-58
2022/04/04 01:29:56;;;;;;;13.02;11.68;;;;;;;-0.19;100.00;160524.28;5073046;28;20456;-58
2022/04/04 01:32:21;;;;;;;10.95;9.95;;;;;;;-0.17;100.00;160529.59;5071662;28;20036;-58
2022/04/04 01:34:47;;;;;;;13.55;10.50;;;;;;;-0.13;100.00;160539.00;5071608;28;20098;-57
2022/04/04 01:37:12;;;;;;;11.15;10.07;;;;;;;-0.07;100.00;160556.44;5071560;28;20056;-57
2022/04/04 01:39:37;;;;;;;13.23;9.52;;;;;;;-0.04;100.00;160564.44;5073066;28;20450;-57
2022/04/04 01:42:04;;;;;;;14.35;10.18;;;;;;;0.02;100.00;160579.19;5070908;28;20051;-57
2022/04/04 01:44:29;;;;;;;10.10;8.90;;;;;;;0.05;100.00;160585.88;5072605;28;20029;-57
2022/04/04 01:46:54;;;;;;;8.25;7.45;;;;;;;0.05;100.00;160587.25;5063903;28;20087;-57
2022/04/04 01:49:20;;;;;;;12.68;10.07;;;;;;;0.09;100.00;160597.94;5052454;28;20013;-57
2022/04/04 01:51:45;;;;;;;12.98;9.95;;;;;;;0.12;100.00;160604.66;5058649;28;20396;-57
2022/04/04 01:54:11;;;;;;;17.30;9.95;;;;;;;0.13;100.00;160607.34;5072107;28;20024;-58
2022/04/04 01:56:36;;;;;;;10.43;9.48;;;;;;;0.15;100.00;160612.72;5071231;28;20032;-57
2022/04/04 01:59:02;;;;;;;11.48;9.45;;;;;;;0.18;100.00;160619.41;5072784;28;20024;-57
2022/04/04 02:01:28;;;;;;;10.43;9.20;;;;;;;0.21;100.00;160627.47;5069853;28;20044;-58
2022/04/04 02:03:55;;;;;;;12.50;11.20;;;;;;;0.25;100.00;160639.53;5072354;28;20028;-58
2022/04/04 02:06:21;;;;;;;11.90;10.45;;;;;;;0.30;100.00;160652.91;5070766;28;20097;-58
2022/04/04 02:08:47;;;;;;;17.27;11.02;;;;;;;0.33;100.00;160659.63;5072269;28;20423;-57
2022/04/04 02:11:14;;;;;;;13.38;10.57;;;;;;;0.38;100.00;160671.69;5070367;28;20070;-57
2022/04/04 02:13:43;;;;;;;12.65;10.27;;;;;;;0.40;100.00;160677.06;5072141;28;20040;-57
2022/04/04 02:16:08;;;;;;;13.40;11.02;;;;;;;0.39;100.00;160674.38;5071037;28;20036;-58
2022/04/04 02:18:34;;;;;;;13.85;11.75;;;;;;;0.37;100.00;160669.00;5071815;28;20078;-57
2022/04/04 02:21:00;;;;;;;14.98;11.10;;;;;;;0.39;100.00;160674.38;5070583;28;20039;-57
2022/04/04 02:23:26;;;;;;;14.32;9.55;;;;;;;0.42;100.00;160682.38;5071921;28;20021;-57
2022/04/04 02:25:55;;;;;;;12.23;10.93;;;;;;;0.44;100.00;160687.75;5070467;28;20078;-58
2022/04/04 02:28:21;;;;;;;14.27;9.70;;;;;;;0.45;100.00;160690.44;5071870;28;20024;-57
2022/04/04 02:30:47;;;;;;;11.85;10.68;;;;;;;0.47;100.00;160695.81;5072188;28;20542;-58
2022/04/04 02:33:12;;;;;;;10.68;9.65;;;;;;;0.50;100.00;160703.84;5069970;28;20036;-58
2022/04/04 02:35:38;;;;;;;10.63;9.57;;;;;;;0.51;100.00;160706.53;5071706;28;20031;-57
2022/04/04 02:38:04;;;;;;;12.00;9.32;;;;;;;0.50;100.00;160702.53;5070222;28;20454;-57
2022/04/04 02:40:30;;;;;;;13.07;10.82;;;;;;;0.51;100.00;160706.53;5071707;28;20033;-57
2022/04/04 02:42:55;;;;;;;12.20;10.75;;;;;;;0.51;100.00;160706.53;5070137;28;20044;-58
2022/04/04 02:45:21;;;;;;;16.70;10.93;;;;;;;0.53;100.00;160711.91;5071448;28;20415;-57
2022/04/04 02:47:46;;;;;;;16.77;11.10;;;;;;;0.52;100.00;160709.22;5069990;28;20040;-58
2022/04/04 02:50:13;;;;;;;12.70;10.27;;;;;;;0.54;100.00;160714.59;5071195;28;20028;-58
2022/04/04 02:52:38;;;;;;;13.95;9.90;;;;;;;0.53;100.00;160711.91;5069811;28;20041;-58
2022/04/04 02:57:49;;;;;;;11.73;10.52;;;;;;;0.59;100.00;160727.97;5070391;28;20047;-58
2022/04/04 03:00:17;;;;;;;15.23;11.57;;;;;;;0.63;100.00;160738.69;5071406;28;20088;-58
2022/04/04 03:02:43;;;;;;;10.35;9.35;;;;;;;0.63;100.00;160738.69;5069855;28;20510;-58
2022/04/04 03:05:08;;;;;;;18.67;12.75;;;;;;;0.60;100.00;160730.66;5070995;28;20028;-58
2022/04/04 03:07:34;;;;;;;19.27;10.88;;;;;;;0.58;100.00;160725.28;5069511;28;20052;-58
2022/04/04 03:09:59;;;;;;;12.55;10.38;;;;;;;0.59;100.00;160727.97;5071430;28;20025;-57
2022/04/04 03:12:24;;;;;;;14.70;11.95;;;;;;;0.58;100.00;160725.28;5069029;28;20420;-58
2022/04/04 03:14:50;;;;;;;15.60;11.68;;;;;;;0.60;100.00;160729.31;5071052;28;20502;-57
2022/04/04 03:17:15;;;;;;;13.43;11.98;;;;;;;0.63;100.00;160737.38;5069550;28;20415;-58
2022/04/04 03:19:41;;;;;;;14.02;12.02;;;;;;;0.65;100.00;160741.38;5070971;28;20384;-57
2022/04/04 03:22:07;;;;;;;13.20;11.88;;;;;;;0.65;100.00;160741.38;5069434;28;20056;-58
2022/04/04 03:24:32;;;;;;;16.08;12.23;;;;;;;0.65;100.00;160741.38;5070744;28;20103;-58
2022/04/04 03:26:58;;;;;;;16.63;10.18;;;;;;;0.66;100.00;160744.06;5069563;28;20408;-57
2022/04/04 03:29:23;;;;;;;20.42;13.23;;;;;;;0.65;100.00;160742.75;5070887;28;20028;-57
2022/04/04 03:31:48;;;;;;;16.35;13.13;;;;;;;0.61;100.00;160733.34;5069791;28;20049;-58
2022/04/04 03:34:14;;;;;;;14.27;12.75;;;;;;;0.68;100.00;160750.75;5070766;28;20019;-58
2022/04/04 03:36:39;;;;;;;14.57;13.18;;;;;;;0.71;100.00;160757.50;5069647;28;20052;-58
2022/04/04 03:39:05;;;;;;;13.18;11.50;;;;;;;0.69;100.00;160752.13;5070732;28;20028;-58
2022/04/04 03:41:30;;;;;;;15.55;13.18;;;;;;;0.70;100.00;160754.81;5069332;28;20098;-57
2022/04/04 03:43:56;;;;;;;17.35;14.75;;;;;;;0.70;100.00;160756.13;5070952;28;20028;-58
2022/04/04 03:46:21;;;;;;;15.93;13.30;;;;;;;0.68;100.00;160749.44;5069392;28;20036;-58
2022/04/04 03:48:46;;;;;;;16.23;14.52;;;;;;;0.72;100.00;160760.13;5070159;28;20029;-58
2022/04/04 03:51:12;;;;;;;17.02;15.20;;;;;;;0.73;100.00;160762.84;5069207;28;20044;-58
2022/04/04 03:53:38;;;;;;;20.83;17.33;;;;;;;0.74;100.00;160765.53;5070875;28;20562;-58
2022/04/04 03:56:04;;;;;;;16.92;14.77;;;;;;;0.72;100.00;160761.50;5069206;28;20031;-58
2022/04/04 03:58:29;;;;;;;15.48;13.82;;;;;;;0.74;100.00;160765.53;5070753;28;20035;-58
2022/04/04 04:00:55;;;;;;;16.55;13.80;;;;;;;0.74;100.00;160765.53;5069167;28;20031;-58
2022/04/04 04:03:20;;;;;;;17.67;14.15;;;;;;;0.77;100.00;160773.59;5069703;28;20021;-58
2022/04/04 04:05:46;;;;;;;17.55;14.63;;;;;;;0.67;100.00;160748.06;5070849;28;20411;-58
2022/04/04 04:08:11;;;;;;;18.75;14.77;;;;;;;0.81;100.00;160782.97;5068943;28;20036;-58
2022/04/04 04:10:36;;;;;;;24.63;16.73;;;;;;;0.81;100.00;160784.28;5070572;28;20024;-57
2022/04/04 04:13:05;;;;;;;16.23;14.43;;;;;;;0.85;100.00;160795.03;5068796;28;20048;-58
2022/04/04 04:15:31;;;;;;;15.82;14.27;;;;;;;0.88;100.00;160801.75;5070164;28;20697;-58
2022/04/04 04:17:56;;;;;;;16.17;12.90;;;;;;;0.91;100.00;160811.13;5068564;28;20048;-58
2022/04/04 04:20:29;;;;;;;19.48;15.35;;;;;;;0.95;100.00;160821.84;5070248;28;20468;-58
2022/04/04 04:22:58;;;;;;;14.25;12.35;;;;;;;0.99;100.00;160829.91;5068788;28;20037;-57
2022/04/04 04:25:27;;;;;;;15.73;13.30;;;;;;;1.03;100.00;160840.59;5072225;28;20020;-58
2022/04/04 04:27:54;;;;;;;17.85;15.75;;;;;;;1.03;100.00;160840.59;5072943;28;20052;-58
2022/04/04 04:30:19;;;;;;;17.15;14.93;;;;;;;1.04;100.00;160844.63;5074236;28;20053;-57
2022/04/04 04:32:48;;;;;;;19.20;14.90;;;;;;;1.09;100.00;160856.69;5072658;28;20491;-57
2022/04/04 04:35:15;;;;;;;20.02;13.63;;;;;;;1.12;100.00;160863.44;5074262;28;20025;-57
2022/04/04 04:37:41;;;;;;;14.50;12.27;;;;;;;1.16;100.00;160875.47;5072172;28;20042;-57
2022/04/04 04:40:06;;;;;;;16.55;13.60;;;;;;;1.15;100.00;160872.81;5073904;28;20021;-56
2022/04/04 04:42:33;;;;;;;17.50;13.00;;;;;;;1.16;100.00;160875.47;5071401;28;20134;-57
2022/04/04 04:44:59;;;;;;;17.55;13.07;;;;;;;1.21;100.00;160888.91;5074101;28;20028;-56
2022/04/04 04:47:24;;;;;;;23.05;13.25;;;;;;;1.23;100.00;160894.25;5070848;28;20385;-56
2022/04/04 04:49:50;;;;;;;16.52;13.48;;;;;;;1.23;100.00;160894.25;5073768;28;20027;-56
2022/04/04 04:52:15;;;;;;;16.83;12.85;;;;;;;1.10;100.00;160860.75;5072047;28;20490;-56
2022/04/04 04:54:42;;;;;;;14.73;13.10;;;;;;;1.22;100.00;160891.59;5073627;28;20021;-56
2022/04/04 04:57:08;;;;;;;13.10;11.55;;;;;;;1.32;100.00;160915.72;5072403;28;20043;-57
2022/04/04 04:59:33;;;;;;;14.85;12.25;;;;;;;1.36;100.00;160926.47;5073754;28;20024;-57
2022/04/04 05:01:59;;;;;;;14.02;12.25;;;;;;;1.40;100.00;160938.53;5072202;28;20231;-57
2022/04/04 05:04:24;;;;;;;14.90;11.40;;;;;;;1.45;100.00;160949.25;5073609;28;20024;-57
2022/04/04 05:06:50;;;;;;;12.35;11.07;;;;;;;1.53;100.00;160970.72;5072434;28;20090;-57
2022/04/04 05:09:18;;;;;;;12.40;11.00;;;;;;;1.58;100.00;160985.50;5072977;28;20024;-57
2022/04/04 05:11:44;;;;;;;15.57;12.45;;;;;;;1.63;100.00;160996.22;5071978;28;20063;-57
2022/04/04 05:14:16;;;;;;;19.48;13.10;;;;;;;1.65;100.00;161001.59;5073578;28;20036;-57
2022/04/04 05:16:43;;;;;;;14.73;11.32;;;;;;;1.69;100.00;161013.66;5071931;28;20048;-57
2022/04/04 05:19:08;;;;;;;12.77;11.48;;;;;;;1.73;100.00;161023.06;5073588;28;20475;-57
2022/04/04 05:21:34;;;;;;;12.15;10.82;;;;;;;1.76;100.00;161031.09;5071739;28;20047;-56
2022/04/04 05:23:59;;;;;;;12.00;10.55;;;;;;;1.79;100.00;161039.16;5071933;28;20430;-57
2022/04/04 05:26:25;;;;;;;12.50;11.25;;;;;;;1.83;100.00;161049.88;5071691;28;20037;-57
2022/04/04 05:28:50;;;;;;;11.98;9.90;;;;;;;1.86;100.00;161057.94;5073237;28;20032;-57
2022/04/04 05:31:15;;;;;;;12.10;9.52;;;;;;;1.93;100.00;161074.03;5071420;28;20048;-57
2022/04/04 05:33:41;;;;;;;10.07;9.07;;;;;;;1.99;100.00;161090.13;5073330;28;20395;-57
2022/04/04 05:36:07;;;;;;;11.00;9.98;;;;;;;1.90;100.00;161068.66;5071743;28;20034;-56
2022/04/04 05:38:32;;;;;;;13.52;9.35;;;;;;;2.05;100.00;161106.22;5072652;28;20028;-56
2022/04/04 05:40:58;;;;;;;10.90;9.48;;;;;;;2.13;100.00;161127.72;5071526;28;20055;-56
2022/04/04 05:43:24;;;;;;;11.27;10.18;;;;;;;2.15;100.00;161133.09;5072863;28;20085;-57
2022/04/04 05:45:49;;;;;;;10.88;9.77;;;;;;;2.24;100.00;161154.56;5070875;28;20020;-57
2022/04/04 05:48:15;;;;;;;13.90;9.10;;;;;;;2.16;100.00;161135.78;5072547;28;20492;-56
2022/04/04 05:50:40;;;;;;;12.02;10.02;;;;;;;2.35;100.00;161185.44;5073038;28;20111;-56
2022/04/04 05:53:06;;;;;;;14.40;11.27;;;;;;;2.31;100.00;161173.34;5071165;28;20036;-57
2022/04/04 05:55:31;;;;;;;13.18;10.75;;;;;;;2.34;100.00;161181.44;5072405;28;20471;-57
2022/04/04 05:57:56;;;;;;;13.93;10.05;;;;;;;2.47;100.00;161216.31;5071435;28;20041;-54
2022/04/04 06:00:22;;;;;;;14.50;11.70;;;;;;;2.49;100.00;161221.72;5072319;28;20471;-54
2022/04/04 06:02:47;;;;;;;18.48;10.23;;;;;;;2.43;100.00;161205.56;5071047;28;20399;-55
2022/04/04 06:05:13;;;;;;;12.70;10.35;;;;;;;2.57;100.00;161240.50;5072717;28;20031;-54
2022/04/04 06:07:40;;;;;;;11.73;10.52;;;;;;;2.65;100.00;161261.94;5070978;28;20045;-55
2022/04/04 06:10:08;;;;;;;12.05;9.95;;;;;;;2.74;100.00;161284.78;5072129;28;20058;-54
2022/04/04 06:12:34;;;;;;;13.60;8.95;;;;;;;2.78;100.00;161295.53;5070876;28;20053;-54
2022/04/04 06:15:00;;;;;;;13.13;10.07;;;;;;;2.72;100.00;161279.41;5072492;28;20452;-55
2022/04/04 06:17:25;;;;;;;10.52;9.23;;;;;;;2.82;100.00;161307.59;5070423;28;20060;-55
2022/04/04 06:19:50;;;;;;;10.93;9.80;;;;;;;2.80;100.00;161302.22;5072328;28;20054;-54
2022/04/04 06:22:16;;;;;;;10.98;9.77;;;;;;;2.82;100.00;161307.59;5070585;28;20036;-54
2022/04/04 06:24:41;;;;;;;11.95;10.68;;;;;;;2.81;100.00;161304.91;5072014;28;20029;-55
2022/04/04 06:27:07;;;;;;;11.88;9.45;;;;;;;2.81;100.00;161304.91;5070985;28;20033;-54
2022/04/04 06:29:33;;;;;;;15.98;9.82;;;;;;;2.82;100.00;161307.59;5071830;28;20031;-54
2022/04/04 06:31:59;;;;;;;14.30;11.50;;;;;;;2.82;100.00;161307.59;5070566;28;20044;-54
2022/04/04 06:34:25;;;;;;;18.88;10.93;;;;;;;2.89;100.00;161325.09;5071995;28;20639;-54
2022/04/04 06:36:51;;;;;;;14.43;10.32;;;;;;;2.95;100.00;161341.19;5070891;28;20048;-54
2022/04/04 06:39:18;;;;;;;15.52;9.57;;;;;;;2.92;100.00;161331.78;5071419;28;20024;-54
2022/04/04 06:41:45;;;;;;;12.60;9.95;;;;;;;3.12;100.00;161384.19;5070806;28;20496;-54
2022/04/04 06:44:11;;;;;;;10.82;9.52;;;;;;;3.15;100.00;161393.59;5071639;28;20032;-54
2022/04/04 06:46:37;;;;;;;11.75;9.57;;;;;;;3.22;100.00;161411.00;5069748;28;20058;-54
2022/04/04 06:49:06;;;;;;;18.33;9.77;;;;;;;3.27;100.00;161423.09;5071932;28;20020;-54
2022/04/04 06:51:35;;;;;;;13.15;9.23;;;;;;;3.30;100.00;161431.19;5070176;28;20037;-54
2022/04/04 06:54:03;;;;;;;15.32;10.75;;;;;;;3.30;100.00;161432.50;5071459;28;20123;-54
2022/04/04 06:56:28;;;;;;;13.05;9.93;;;;;;;3.29;100.00;161428.50;5070086;28;20427;-54
2022/04/04 06:58:54;;;;;;;15.95;10.70;;;;;;;3.29;100.00;161429.81;5062339;28;20059;-54
2022/04/04 07:01:19;;;;;;;13.52;12.13;;;;;;;3.40;100.00;161458.03;5054644;28;20037;-54
2022/04/04 07:03:44;;;;;;;10.05;9.05;;;;;;;3.43;100.00;161466.09;5069420;28;20074;-54
2022/04/04 07:06:10;;;;;;;11.45;9.40;;;;;;;3.49;100.00;161482.22;5050057;28;20415;-54
2022/04/04 07:08:35;;;;;;;15.15;9.18;;;;;;;3.54;100.00;161493.00;5050654;28;20025;-54
2022/04/04 07:11:02;;;;;;;11.50;8.23;;;;;;;3.62;100.00;161514.44;5049987;28;20028;-54
2022/04/04 07:13:27;;;;;;;18.77;10.35;;;;;;;3.69;100.00;161533.25;5051032;28;20520;-54
2022/04/04 07:15:52;;;;;;;13.85;9.10;;;;;;;3.59;100.00;161506.41;5059260;28;20016;-54
2022/04/04 07:18:18;;;;;;;13.65;9.95;;;;;;;3.78;100.00;161557.44;5051358;28;20361;-54
2022/04/04 07:20:43;;;;;;;14.02;10.70;;;;;;;3.73;100.00;161544.03;5051277;28;20017;-55
2022/04/04 07:23:09;;;;;;;21.70;11.45;;;;;;;3.88;100.00;161582.97;5049543;28;20045;-54
2022/04/04 07:25:35;;;;;;;11.98;9.50;;;;;;;3.86;100.00;161576.25;5051108;28;20377;-55
2022/04/04 07:28:01;;;;;;;15.77;10.27;;;;;;;4.02;100.00;161619.28;5049603;28;20147;-55
2022/04/04 07:30:26;;;;;;;14.63;10.10;;;;;;;4.06;100.00;161628.69;5050412;28;20025;-53
2022/04/04 07:32:52;;;;;;;14.75;10.93;;;;;;;4.09;100.00;161636.78;5049645;28;20089;-54
2022/04/04 07:35:19;;;;;;;16.67;11.18;;;;;;;4.09;100.00;161638.09;5050796;28;20021;-54
2022/04/04 07:37:46;;;;;;;10.82;9.52;;;;;;;4.00;100.00;161612.56;5049254;28;20075;-54
2022/04/04 07:40:15;;;;;;;13.23;9.30;;;;;;;4.04;100.00;161624.66;5050706;28;20013;-54
2022/04/04 07:42:43;;;;;;;11.63;10.43;;;;;;;4.21;100.00;161667.63;5049397;28;20046;-54
2022/04/04 07:45:10;;;;;;;12.55;11.35;;;;;;;4.24;100.00;161675.72;5050586;28;20025;-54
2022/04/04 07:47:36;;;;;;;11.15;9.90;;;;;;;4.39;100.00;161714.72;5049534;28;20702;-54
2022/04/04 07:50:03;;;;;;;12.57;10.20;;;;;;;4.19;100.00;161663.63;5052078;28;20443;-54
2022/04/04 07:52:28;;;;;;;21.33;11.48;;;;;;;4.20;100.00;161665.00;5066619;28;20169;-54
2022/04/04 07:54:54;;;;;;;13.02;10.32;;;;;;;4.13;100.00;161648.81;5068830;28;20028;-54
2022/04/04 07:57:21;;;;;;;13.18;10.57;;;;;;;4.18;100.00;161660.94;5069325;28;20400;-54
2022/04/04 07:59:46;;;;;;;12.57;11.27;;;;;;;4.25;100.00;161679.75;5056829;28;20024;-54
2022/04/04 08:02:12;;;;;;;14.50;12.50;;;;;;;4.14;100.00;161650.19;5052981;28;20048;-54
2022/04/04 08:04:38;;;;;;;12.35;10.82;;;;;;;4.01;100.00;161616.59;5060233;28;20020;-54
2022/04/04 08:07:04;;;;;;;14.73;12.27;;;;;;;3.87;100.00;161580.28;5072913;28;20119;-56
2022/04/04 08:09:29;;;;;;;14.40;12.25;;;;;;;3.93;100.00;161595.06;5074539;28;20123;-54
2022/04/04 08:11:55;;;;;;;15.57;12.55;;;;;;;3.84;100.00;161570.88;5073302;28;20411;-54
2022/04/04 08:14:21;;;;;;;13.90;11.13;;;;;;;3.72;100.00;161541.34;5067516;28;20024;-54
2022/04/04 08:16:47;;;;;;;14.43;11.50;;;;;;;3.75;100.00;161549.41;5051570;28;20041;-54
2022/04/04 08:19:13;;;;;;;11.93;10.52;;;;;;;3.62;100.00;161514.44;5038149;28;20372;-55
2022/04/04 08:21:41;;;;;;;14.45;13.00;;;;;;;3.57;100.00;161502.41;5059635;28;20036;-54
2022/04/04 08:24:07;;;;;;;16.10;13.27;;;;;;;3.51;100.00;161486.22;5074556;28;20055;-54
2022/04/04 08:26:33;;;;;;;18.98;15.13;;;;;;;3.51;100.00;161484.91;5073027;28;20110;-55
2022/04/04 08:28:58;;;;;;;16.45;13.98;;;;;;;3.55;100.00;161497.00;5073908;28;20496;-54
2022/04/04 08:31:24;;;;;;;14.63;13.13;;;;;;;3.57;100.00;161501.03;5072674;28;20109;-54
2022/04/04 08:33:49;;;;;;;18.77;13.73;;;;;;;3.62;100.00;161514.44;5069261;28;20033;-54
2022/04/04 08:36:14;;;;;;;16.15;14.05;;;;;;;3.66;100.00;161525.22;5053759;28;20075;-54
2022/04/04 08:38:41;;;;;;;16.17;14.48;;;;;;;3.72;100.00;161541.34;5068953;28;20070;-54
2022/04/04 08:41:08;;;;;;;26.75;16.25;;;;;;;3.71;100.00;161538.63;5054748;28;20075;-55
2022/04/04 08:43:37;;;;;;;17.45;14.73;;;;;;;3.73;100.00;161544.03;5063290;28;20374;-55
2022/04/04 08:46:05;;;;;;;29.23;14.88;;;;;;;3.82;100.00;161566.84;5058623;28;20032;-54
2022/04/04 08:48:31;;;;;;;20.80;13.97;;;;;;;3.89;100.00;161584.34;5070060;28;20020;-55
2022/04/04 08:50:57;;;;;;;18.83;13.80;;;;;;;3.97;100.00;161605.84;5057047;28;21062;-54
2022/04/04 08:53:23;;;;;;;14.90;13.40;;;;;;;4.00;100.00;161613.88;5065022;28;20055;-54
2022/04/04 08:55:48;;;;;;;14.82;11.95;;;;;;;3.96;100.00;161603.16;5065863;28;20025;-54
2022/04/04 08:58:15;;;;;;;19.50;14.95;;;;;;;4.04;100.00;161624.66;5056182;28;20053;-54
2022/04/04 09:00:40;;;;;;;15.88;13.50;;;;;;;4.07;100.00;161632.69;5068464;28;20046;-55
2022/04/04 09:03:06;;;;;;;22.23;14.05;;;;;;;4.13;100.00;161648.81;5060569;28;20040;-54
2022/04/04 09:05:33;;;;;;;15.05;13.45;;;;;;;4.22;100.00;161670.34;5059383;28;20025;-54
2022/04/04 09:08:00;;;;;;;13.68;12.15;;;;;;;4.25;100.00;161678.41;5064816;28;20037;-55
2022/04/04 09:10:40;;;;;;;16.83;12.32;;;;;;;4.30;100.00;161691.84;5052183;28;20060;-54
2022/04/04 09:13:10;;;;;;;16.65;13.65;;;;;;;4.33;100.00;161699.94;5070535;28;20071;-54
2022/04/04 09:15:59;;;;;;;14.52;11.73;;;;;;;4.40;100.00;161718.75;5073388;28;20028;-54
2022/04/04 09:18:37;;;;;;;17.70;11.75;;;;;;;4.40;100.00;161718.75;5051262;28;20079;-54
2022/04/04 09:21:26;;;;;;;18.73;11.77;;;;;;;4.47;100.00;161734.88;5054893;28;20021;-54
2022/04/04 09:23:54;;;;;;;14.45;12.07;;;;;;;4.53;100.00;161751.00;5053416;28;20078;-55
2022/04/04 09:26:33;;;;;;;12.02;10.77;;;;;;;4.56;100.00;161759.09;5051923;28;20041;-54
2022/04/04 09:28:59;;;;;;;;;;;;;;;4.67;100.00;161788.63;5053116;28;20021;-55
2022/04/04 09:31:25;;;;;;;19.50;13.45;;;;;;;4.82;100.00;161826.28;5056513;28;19947;-54
2022/04/04 09:33:51;;;;;;;18.88;10.15;;;;;;;4.87;100.00;161841.09;5073159;28;20064;-54
2022/04/04 09:36:17;;;;;;;16.17;13.18;;;;;;;4.87;100.00;161841.09;5071249;28;20036;-54
2022/04/04 09:38:53;;;;;;;15.27;13.30;;;;;;;4.82;100.00;161827.66;5073153;28;20043;-53
2022/04/04 09:41:24;;;;;;;22.42;14.15;;;;;;;4.82;100.00;161826.28;5071399;28;20028;-54
2022/04/04 09:43:57;;;;;;;17.02;13.63;;;;;;;4.83;100.00;161828.97;5072847;28;20024;-54
2022/04/04 09:46:23;;;;;;;21.70;13.15;;;;;;;4.75;100.00;161810.16;5071615;28;20029;-53
2022/04/04 09:49:07;;;;;;;13.90;12.50;;;;;;;4.61;100.00;161772.50;5072815;28;20031;-53
2022/04/04 09:51:42;;;;;;;18.40;14.50;;;;;;;4.57;100.00;161763.09;5064463;28;20527;-54
2022/04/04 09:54:18;;;;;;;17.17;13.40;;;;;;;4.50;100.00;161742.97;5058127;28;20032;-54
2022/04/04 09:56:44;;;;;;;23.85;17.20;;;;;;;4.48;100.00;161737.56;5051531;28;20033;-54
2022/04/04 09:59:12;;;;;;;30.27;14.73;;;;;;;4.43;100.00;161726.78;5052611;28;20480;-54
2022/04/04 10:01:38;;;;;;;20.92;15.77;;;;;;;4.38;100.00;161713.34;5051388;28;20044;-54
2022/04/04 10:04:06;;;;;;;19.67;16.50;;;;;;;4.37;100.00;161709.34;5052325;28;20021;-54
2022/04/04 10:06:33;;;;;;;16.60;14.90;;;;;;;4.24;100.00;161675.72;5052559;28;20124;-53
2022/04/04 10:09:02;;;;;;;20.25;16.88;;;;;;;4.22;100.00;161670.34;5070013;28;20431;-54
2022/04/04 10:11:30;;;;;;;24.73;17.35;;;;;;;4.23;100.00;161673.03;5068458;28;20036;-54
2022/04/04 10:13:56;;;;;;;18.90;16.98;;;;;;;4.32;100.00;161697.22;5053025;28;20029;-54
2022/04/04 10:16:22;;;;;;;23.17;17.70;;;;;;;4.32;100.00;161697.22;5056129;28;20036;-54
2022/04/04 10:18:49;;;;;;;24.13;17.55;;;;;;;4.24;100.00;161675.72;5071364;28;20060;-54
2022/04/04 10:21:14;;;;;;;20.15;17.77;;;;;;;4.19;100.00;161662.31;5069450;28;20546;-55
2022/04/04 10:23:41;;;;;;;18.98;16.92;;;;;;;4.04;100.00;161624.66;5055521;28;20033;-55
2022/04/04 10:26:07;;;;;;;20.23;17.92;;;;;;;4.21;100.00;161667.63;5054062;28;20028;-54
2022/04/04 10:28:38;;;;;;;22.30;18.58;;;;;;;4.17;100.00;161656.91;5071502;28;20032;-54
2022/04/04 10:31:16;;;;;;;22.02;18.90;;;;;;;4.10;100.00;161639.41;5063490;28;20110;-54
2022/04/04 10:33:42;;;;;;;22.60;19.23;;;;;;;4.09;100.00;161638.09;5063483;28;20048;-54
2022/04/04 10:36:10;;;;;;;22.05;19.65;;;;;;;4.17;100.00;161656.91;5071753;28;20031;-54
2022/04/04 10:38:49;;;;;;;18.50;15.60;;;;;;;4.22;100.00;161670.34;5070388;28;20047;-54
2022/04/04 10:41:36;;;;;;;24.52;19.15;;;;;;;4.13;100.00;161648.81;5071133;28;20033;-54
2022/04/04 10:44:05;;;;;;;21.35;18.48;;;;;;;4.20;100.00;161665.00;5050437;28;20462;-54
2022/04/04 10:46:31;;;;;;;20.75;18.13;;;;;;;4.09;100.00;161636.78;5052937;28;20028;-55
2022/04/04 10:49:02;;;;;;;23.67;21.17;;;;;;;4.16;100.00;161655.59;5069589;28;20514;-55
2022/04/04 10:51:37;;;;;;;22.85;20.20;;;;;;;4.09;100.00;161636.78;5070186;28;20446;-55
2022/04/04 10:54:05;;;;;;;23.80;20.92;;;;;;;4.25;100.00;161679.75;5069107;28;20502;-57
2022/04/04 10:56:38;;;;;;;22.17;20.02;;;;;;;4.19;100.00;161662.31;5071140;28;20032;-55
2022/04/04 10:59:15;;;;;;;22.95;20.67;;;;;;;4.14;100.00;161650.19;5070265;28;20040;-55
2022/04/04 11:01:49;;;;;;;23.88;20.77;;;;;;;4.20;100.00;161665.00;5070036;28;20030;-55
2022/04/04 11:04:25;;;;;;;26.55;22.52;;;;;;;4.15;100.00;161651.50;5071128;28;20028;-55
2022/04/04 11:09:51;;;;;;;25.05;21.83;;;;;;;4.18;100.00;161659.59;5071437;28;20226;-55
2022/04/04 11:12:18;;;;;;;24.92;21.88;;;;;;;4.10;100.00;161640.78;5069330;28;20145;-55
2022/04/04 11:14:47;;;;;;;26.50;23.70;;;;;;;4.12;100.00;161646.19;5071332;28;20021;-56